KLM58N LOWW-EHAM
Flight info
| Callsign | KLM58N |
|---|---|
| Flight time | N/A |
| Altitude | 36000 |
| Route | BUWU1C BUWUT DCT DITIS DCT RAPET DCT MASEK DCT MAPOX DCT ABILU Z850 HMM DCT NORKU |
| Aircraft | B738/M-L/4577 |
Departure
| Time | 2026-04-22 12:11 |
|---|---|
| Airport | Vienna International Airport (LOWW) |
Arrival
| Time | N/A |
|---|---|
| Airport | Amsterdam Airport Schiphol (EHAM) |
| Time | Latitude | Longitude | Altitude | Speed | Heading |
|---|---|---|---|---|---|
| 2026-04-22 11:51 | 48.11972 | 16.55846 | 586 ft | 0 kts | 298° |
| 2026-04-22 12:03 | 48.11970 | 16.55851 | 586 ft | 2 kts | 298° |
| 2026-04-22 12:03 | 48.11963 | 16.55871 | 587 ft | 2 kts | 298° |
| 2026-04-22 12:03 | 48.11956 | 16.55891 | 587 ft | 2 kts | 298° |
| 2026-04-22 12:03 | 48.11952 | 16.55904 | 587 ft | 2 kts | 296° |
| 2026-04-22 12:04 | 48.11950 | 16.55926 | 587 ft | 2 kts | 257° |
| 2026-04-22 12:04 | 48.11956 | 16.55946 | 587 ft | 2 kts | 226° |
| 2026-04-22 12:04 | 48.11963 | 16.55955 | 587 ft | 0 kts | 208° |
| 2026-04-22 12:04 | 48.11970 | 16.55960 | 587 ft | 0 kts | 206° |
| 2026-04-22 12:05 | 48.11969 | 16.55960 | 587 ft | 0 kts | 206° |
| 2026-04-22 12:07 | 48.11959 | 16.55952 | 587 ft | 3 kts | 206° |
| 2026-04-22 12:07 | 48.11925 | 16.55926 | 587 ft | 7 kts | 207° |
| 2026-04-22 12:07 | 48.11861 | 16.55879 | 585 ft | 13 kts | 207° |
| 2026-04-22 12:07 | 48.11780 | 16.55819 | 583 ft | 12 kts | 207° |
| 2026-04-22 12:08 | 48.11696 | 16.55813 | 583 ft | 12 kts | 144° |
| 2026-04-22 12:08 | 48.11648 | 16.55930 | 585 ft | 13 kts | 116° |
| 2026-04-22 12:08 | 48.11605 | 16.56064 | 588 ft | 15 kts | 116° |
| 2026-04-22 12:08 | 48.11558 | 16.56209 | 591 ft | 16 kts | 116° |
| 2026-04-22 12:09 | 48.11499 | 16.56385 | 595 ft | 19 kts | 117° |
| 2026-04-22 12:09 | 48.11439 | 16.56570 | 600 ft | 19 kts | 116° |
| 2026-04-22 12:09 | 48.11376 | 16.56763 | 603 ft | 21 kts | 116° |
| 2026-04-22 12:09 | 48.11312 | 16.56960 | 605 ft | 19 kts | 115° |
| 2026-04-22 12:10 | 48.11258 | 16.57127 | 605 ft | 16 kts | 117° |
| 2026-04-22 12:10 | 48.11189 | 16.57227 | 603 ft | 13 kts | 180° |
| 2026-04-22 12:10 | 48.11098 | 16.57165 | 603 ft | 15 kts | 229° |
| 2026-04-22 12:10 | 48.11103 | 16.56957 | 604 ft | 35 kts | 297° |
| 2026-04-22 12:11 | 48.11318 | 16.56300 | 593 ft | 102 kts | 296° |
| 2026-04-22 12:11 | 48.11712 | 16.55070 | 586 ft | 156 kts | 297° |
| 2026-04-22 12:11 | 48.12199 | 16.53490 | 1028 ft | 169 kts | 298° |
| 2026-04-22 12:11 | 48.12528 | 16.51868 | 1787 ft | 169 kts | 272° |
| 2026-04-22 12:12 | 48.12206 | 16.50043 | 2234 ft | 193 kts | 251° |
| 2026-04-22 12:12 | 48.11725 | 16.48072 | 2493 ft | 217 kts | 258° |
| 2026-04-22 12:12 | 48.11625 | 16.45741 | 2889 ft | 233 kts | 279° |
| 2026-04-22 12:12 | 48.11921 | 16.43282 | 3435 ft | 247 kts | 283° |
| 2026-04-22 12:13 | 48.12237 | 16.40679 | 4048 ft | 258 kts | 282° |
| 2026-04-22 12:13 | 48.12530 | 16.38042 | 4856 ft | 259 kts | 281° |
| 2026-04-22 12:13 | 48.12826 | 16.35360 | 5016 ft | 267 kts | 281° |
| 2026-04-22 12:13 | 48.13121 | 16.32597 | 5135 ft | 271 kts | 280° |
| 2026-04-22 12:14 | 48.13402 | 16.29856 | 6125 ft | 265 kts | 280° |
| 2026-04-22 12:14 | 48.13689 | 16.27137 | 6908 ft | 267 kts | 279° |
| 2026-04-22 12:14 | 48.14008 | 16.24411 | 7668 ft | 268 kts | 285° |
| 2026-04-22 12:14 | 48.14697 | 16.21823 | 8367 ft | 270 kts | 302° |
| 2026-04-22 12:15 | 48.15941 | 16.19742 | 9074 ft | 273 kts | 321° |
| 2026-04-22 12:15 | 48.17554 | 16.18237 | 9796 ft | 276 kts | 331° |
| 2026-04-22 12:15 | 48.19287 | 16.16955 | 10315 ft | 286 kts | 333° |
| 2026-04-22 12:15 | 48.21137 | 16.15613 | 10387 ft | 311 kts | 333° |
| 2026-04-22 12:16 | 48.23179 | 16.14114 | 10450 ft | 335 kts | 333° |
| 2026-04-22 12:16 | 48.25304 | 16.12544 | 10694 ft | 350 kts | 333° |
| 2026-04-22 12:16 | 48.27504 | 16.10916 | 11260 ft | 356 kts | 333° |
| 2026-04-22 12:16 | 48.29743 | 16.09257 | 11889 ft | 360 kts | 333° |
| 2026-04-22 12:17 | 48.31996 | 16.07586 | 12553 ft | 362 kts | 332° |
| 2026-04-22 12:17 | 48.34248 | 16.05917 | 13300 ft | 362 kts | 332° |
| 2026-04-22 12:17 | 48.36500 | 16.04243 | 13995 ft | 364 kts | 332° |
| 2026-04-22 12:17 | 48.38732 | 16.02581 | 14702 ft | 365 kts | 332° |
| 2026-04-22 12:18 | 48.40992 | 16.00895 | 15408 ft | 366 kts | 331° |
| 2026-04-22 12:18 | 48.43288 | 15.99180 | 16121 ft | 367 kts | 331° |
| 2026-04-22 12:18 | 48.45544 | 15.97492 | 16791 ft | 368 kts | 331° |
| 2026-04-22 12:18 | 48.47831 | 15.95780 | 17466 ft | 369 kts | 331° |
| 2026-04-22 12:19 | 48.50142 | 15.94048 | 18117 ft | 370 kts | 331° |
| 2026-04-22 12:19 | 48.52439 | 15.92323 | 18761 ft | 371 kts | 331° |
| 2026-04-22 12:19 | 48.54690 | 15.90545 | 19362 ft | 371 kts | 327° |
| 2026-04-22 12:19 | 48.56794 | 15.88273 | 19969 ft | 370 kts | 317° |
| 2026-04-22 12:20 | 48.58538 | 15.85452 | 20565 ft | 370 kts | 308° |
| 2026-04-22 12:20 | 48.60009 | 15.82323 | 21150 ft | 370 kts | 305° |
| 2026-04-22 12:20 | 48.61463 | 15.79065 | 21661 ft | 373 kts | 305° |
| 2026-04-22 12:20 | 48.62907 | 15.75825 | 22213 ft | 373 kts | 305° |
| 2026-04-22 12:21 | 48.64364 | 15.72565 | 22720 ft | 375 kts | 306° |
| 2026-04-22 12:21 | 48.65828 | 15.69293 | 23232 ft | 376 kts | 306° |
| 2026-04-22 12:21 | 48.67278 | 15.66053 | 23710 ft | 377 kts | 306° |
| 2026-04-22 12:21 | 48.68753 | 15.62761 | 24190 ft | 379 kts | 306° |
| 2026-04-22 12:22 | 48.70221 | 15.59418 | 24647 ft | 381 kts | 304° |
| 2026-04-22 12:22 | 48.71544 | 15.55977 | 25094 ft | 383 kts | 302° |
| 2026-04-22 12:22 | 48.72837 | 15.52428 | 25524 ft | 384 kts | 302° |
| 2026-04-22 12:22 | 48.74121 | 15.48889 | 25941 ft | 386 kts | 302° |
| 2026-04-22 12:23 | 48.75421 | 15.45310 | 26344 ft | 387 kts | 302° |
| 2026-04-22 12:23 | 48.76706 | 15.41780 | 26739 ft | 388 kts | 303° |
| 2026-04-22 12:23 | 48.78011 | 15.38195 | 27135 ft | 389 kts | 303° |
| 2026-04-22 12:23 | 48.79314 | 15.34608 | 27633 ft | 388 kts | 303° |
| 2026-04-22 12:24 | 48.80658 | 15.31099 | 28126 ft | 384 kts | 306° |
| 2026-04-22 12:24 | 48.82147 | 15.27790 | 28668 ft | 380 kts | 309° |
| 2026-04-22 12:24 | 48.83686 | 15.24521 | 29187 ft | 377 kts | 309° |
| 2026-04-22 12:24 | 48.85192 | 15.21338 | 29689 ft | 374 kts | 309° |
| 2026-04-22 12:25 | 48.86702 | 15.18143 | 30174 ft | 372 kts | 310° |
| 2026-04-22 12:25 | 48.88199 | 15.14974 | 30644 ft | 369 kts | 310° |
| 2026-04-22 12:25 | 48.89678 | 15.11839 | 31094 ft | 367 kts | 310° |
| 2026-04-22 12:25 | 48.91188 | 15.08705 | 31537 ft | 364 kts | 311° |
| 2026-04-22 12:26 | 48.92676 | 15.05672 | 31957 ft | 362 kts | 312° |
| 2026-04-22 12:26 | 48.94177 | 15.02612 | 32369 ft | 359 kts | 312° |
| 2026-04-22 12:26 | 48.95662 | 14.99580 | 32767 ft | 357 kts | 312° |
| 2026-04-22 12:26 | 48.97137 | 14.96564 | 33151 ft | 356 kts | 313° |
| 2026-04-22 12:27 | 48.98601 | 14.93565 | 33520 ft | 354 kts | 313° |
| 2026-04-22 12:27 | 49.00055 | 14.90581 | 33876 ft | 352 kts | 313° |
| 2026-04-22 12:27 | 49.01521 | 14.87570 | 34239 ft | 350 kts | 313° |
| 2026-04-22 12:27 | 49.02948 | 14.84637 | 34585 ft | 348 kts | 313° |
| 2026-04-22 12:28 | 49.04396 | 14.81662 | 34891 ft | 347 kts | 313° |
| 2026-04-22 12:28 | 49.05815 | 14.78741 | 35169 ft | 346 kts | 313° |
| 2026-04-22 12:28 | 49.07251 | 14.75779 | 35444 ft | 346 kts | 313° |
| 2026-04-22 12:28 | 49.08660 | 14.72869 | 35703 ft | 345 kts | 313° |
| 2026-04-22 12:29 | 49.10081 | 14.69927 | 35957 ft | 345 kts | 313° |
| 2026-04-22 12:29 | 49.11517 | 14.66954 | 36202 ft | 345 kts | 313° |
| 2026-04-22 12:29 | 49.14365 | 14.61044 | 36206 ft | 345 kts | 313° |
| 2026-04-22 12:30 | 49.18571 | 14.52282 | 36210 ft | 340 kts | 313° |
| 2026-04-22 12:31 | 49.21375 | 14.46435 | 36210 ft | 342 kts | 313° |
| 2026-04-22 12:31 | 49.24184 | 14.40558 | 36209 ft | 343 kts | 313° |
| 2026-04-22 12:32 | 49.26976 | 14.34700 | 36209 ft | 342 kts | 313° |
| 2026-04-22 12:32 | 49.31182 | 14.25810 | 36209 ft | 343 kts | 313° |
| 2026-04-22 12:33 | 49.33967 | 14.19924 | 36209 ft | 343 kts | 313° |
| 2026-04-22 12:33 | 49.36758 | 14.14022 | 36209 ft | 343 kts | 313° |
| 2026-04-22 12:34 | 49.39555 | 14.08097 | 36209 ft | 343 kts | 313° |
| 2026-04-22 12:34 | 49.42344 | 14.02175 | 36209 ft | 343 kts | 313° |
| 2026-04-22 12:35 | 49.45126 | 13.96256 | 36209 ft | 343 kts | 313° |
| 2026-04-22 12:35 | 49.47912 | 13.90319 | 36209 ft | 343 kts | 313° |
| 2026-04-22 12:36 | 49.50691 | 13.84380 | 36209 ft | 343 kts | 313° |
| 2026-04-22 12:36 | 49.53463 | 13.78442 | 36209 ft | 343 kts | 313° |
| 2026-04-22 12:37 | 49.56235 | 13.72494 | 36209 ft | 343 kts | 313° |
| 2026-04-22 12:37 | 49.58998 | 13.66550 | 36209 ft | 343 kts | 313° |
| 2026-04-22 12:38 | 49.61769 | 13.60576 | 36209 ft | 343 kts | 313° |
| 2026-04-22 12:38 | 49.64521 | 13.54630 | 36209 ft | 343 kts | 313° |
| 2026-04-22 12:39 | 49.68667 | 13.45646 | 36209 ft | 342 kts | 313° |
| 2026-04-22 12:40 | 49.71435 | 13.39632 | 36209 ft | 342 kts | 313° |
| 2026-04-22 12:40 | 49.74174 | 13.33663 | 36209 ft | 343 kts | 312° |
| 2026-04-22 12:41 | 49.76928 | 13.27616 | 36209 ft | 344 kts | 312° |
| 2026-04-22 12:41 | 49.79665 | 13.21610 | 36209 ft | 343 kts | 312° |
| 2026-04-22 12:42 | 49.82407 | 13.15589 | 36209 ft | 343 kts | 312° |
| 2026-04-22 12:42 | 49.85168 | 13.09520 | 36209 ft | 343 kts | 312° |
| 2026-04-22 12:43 | 49.87902 | 13.03495 | 36209 ft | 343 kts | 312° |
| 2026-04-22 12:43 | 49.90643 | 12.97444 | 36209 ft | 343 kts | 312° |
| 2026-04-22 12:44 | 49.93364 | 12.91423 | 36209 ft | 343 kts | 312° |
| 2026-04-22 12:44 | 49.96088 | 12.85382 | 36209 ft | 343 kts | 312° |
| 2026-04-22 12:45 | 49.98823 | 12.79303 | 36209 ft | 343 kts | 312° |
| 2026-04-22 12:45 | 50.01567 | 12.73190 | 36209 ft | 343 kts | 312° |
| 2026-04-22 12:46 | 50.04276 | 12.67140 | 36209 ft | 343 kts | 312° |
| 2026-04-22 12:46 | 50.06998 | 12.61047 | 36209 ft | 343 kts | 312° |
| 2026-04-22 12:47 | 50.09712 | 12.54962 | 36209 ft | 343 kts | 312° |
| 2026-04-22 12:47 | 50.12414 | 12.48886 | 36209 ft | 344 kts | 312° |
| 2026-04-22 12:48 | 50.15144 | 12.42731 | 36209 ft | 343 kts | 312° |
| 2026-04-22 12:48 | 50.17818 | 12.36602 | 36208 ft | 345 kts | 309° |
| 2026-04-22 12:49 | 50.19888 | 12.29716 | 36210 ft | 358 kts | 299° |
| 2026-04-22 12:49 | 50.21467 | 12.22277 | 36209 ft | 359 kts | 298° |
| 2026-04-22 12:50 | 50.23020 | 12.14879 | 36209 ft | 359 kts | 298° |
| 2026-04-22 12:50 | 50.24564 | 12.07486 | 36209 ft | 359 kts | 298° |
| 2026-04-22 12:51 | 50.26103 | 12.00084 | 36209 ft | 359 kts | 298° |
| 2026-04-22 12:51 | 50.27639 | 11.92663 | 36209 ft | 359 kts | 298° |
| 2026-04-22 12:52 | 50.29169 | 11.85246 | 36209 ft | 359 kts | 298° |
| 2026-04-22 12:52 | 50.30699 | 11.77798 | 36209 ft | 359 kts | 298° |
| 2026-04-22 12:53 | 50.32216 | 11.70387 | 36209 ft | 359 kts | 298° |
| 2026-04-22 12:53 | 50.33740 | 11.62915 | 36209 ft | 359 kts | 298° |
| 2026-04-22 12:54 | 50.35241 | 11.55524 | 36209 ft | 359 kts | 298° |
| 2026-04-22 12:54 | 50.36759 | 11.48024 | 36209 ft | 359 kts | 298° |
| 2026-04-22 12:55 | 50.38256 | 11.40599 | 36209 ft | 359 kts | 298° |
| 2026-04-22 12:55 | 50.39728 | 11.33261 | 36209 ft | 359 kts | 297° |
| 2026-04-22 12:56 | 50.41221 | 11.25749 | 36209 ft | 360 kts | 297° |
| 2026-04-22 12:56 | 50.42706 | 11.18266 | 36209 ft | 360 kts | 297° |
| 2026-04-22 12:57 | 50.44183 | 11.10811 | 36209 ft | 359 kts | 297° |
| 2026-04-22 12:57 | 50.45673 | 11.03275 | 36209 ft | 359 kts | 297° |
| 2026-04-22 12:58 | 50.47149 | 10.95782 | 36209 ft | 359 kts | 297° |
| 2026-04-22 12:58 | 50.48616 | 10.88304 | 36209 ft | 359 kts | 297° |
| 2026-04-22 12:59 | 50.50085 | 10.80790 | 36209 ft | 359 kts | 297° |
| 2026-04-22 12:59 | 50.51539 | 10.73326 | 36209 ft | 359 kts | 297° |
| 2026-04-22 13:00 | 50.52990 | 10.65844 | 36209 ft | 359 kts | 297° |
| 2026-04-22 13:00 | 50.54439 | 10.58344 | 36209 ft | 359 kts | 297° |
| 2026-04-22 13:01 | 50.55888 | 10.50815 | 36209 ft | 359 kts | 297° |
| 2026-04-22 13:01 | 50.57332 | 10.43284 | 36209 ft | 359 kts | 297° |
| 2026-04-22 13:02 | 50.58765 | 10.35778 | 36209 ft | 359 kts | 297° |
| 2026-04-22 13:02 | 50.60162 | 10.28384 | 36209 ft | 361 kts | 297° |
| 2026-04-22 13:03 | 50.61591 | 10.20800 | 36209 ft | 361 kts | 297° |
| 2026-04-22 13:03 | 50.63010 | 10.13262 | 36209 ft | 360 kts | 297° |
| 2026-04-22 13:04 | 50.64427 | 10.05710 | 36209 ft | 360 kts | 297° |